Kingsford Heights, Indiana
Current Conditions -  °F | °C
As of 7:55 PM on Sunday 21 Dec 2014 (Local Time) from KPPO Reporting Station
Haze Haze  
Wind Chill: 27°   Ceiling: Unl
Heat Index: 32°   Visibility: 5mi
Dew Point: 29°   Wind: 5mph
Humidity: 90%   Direction: 130°SE
Pressure: 30.11"   Gusts: NA
Location:  41.48°N, 86.69°W
Report Text: KPPO 220155Z AUTO 13004KT 5SM BR CLR 00/M01 A3011 RMK AO2 T00001015
Loading
Personal Weather Stations






























Interactive Weather Map New forecast layout! Learn more

10-Day Weather Forecast

Advertisements
Track Severe Weather on mobile